createdAt,value
2019-01-11T00:01:23.361Z,-0.77
2019-01-11T00:03:54.361Z,-0.74
2019-01-11T00:06:25.242Z,-0.76
2019-01-11T00:08:56.035Z,-0.80
2019-01-11T00:11:26.803Z,-0.77
2019-01-11T00:13:57.535Z,-0.78
2019-01-11T00:16:28.331Z,-0.75
2019-01-11T00:18:59.850Z,-0.73
2019-01-11T00:21:30.489Z,-0.77
2019-01-11T00:24:01.113Z,-0.77
2019-01-11T00:26:31.699Z,-0.77
2019-01-11T00:29:02.341Z,-0.81
2019-01-11T00:31:33.339Z,-0.84
2019-01-11T00:34:04.299Z,-0.82
2019-01-11T00:36:34.928Z,-0.80
2019-01-11T00:39:08.220Z,-0.80
2019-01-11T00:41:38.859Z,-0.79
2019-01-11T00:44:09.570Z,-0.76
2019-01-11T00:46:40.618Z,-0.74
2019-01-11T00:49:13.604Z,-0.77
2019-01-11T00:51:43.533Z,-0.76
2019-01-11T00:54:14.998Z,-0.75
2019-01-11T00:56:45.578Z,-0.75
2019-01-11T00:59:16.222Z,-0.75
2019-01-11T01:01:46.971Z,-0.74
2019-01-11T01:04:17.851Z,-0.75
2019-01-11T01:06:48.542Z,-0.75
2019-01-11T01:09:19.109Z,-0.71
2019-01-11T01:11:49.878Z,-0.65
2019-01-11T01:14:20.506Z,-0.66
2019-01-11T01:16:51.129Z,-0.67
2019-01-11T01:19:22.161Z,-0.66
2019-01-11T01:21:52.789Z,-0.70
2019-01-11T01:24:23.408Z,-0.69
2019-01-11T01:26:54.153Z,-0.64
2019-01-11T01:29:25.088Z,-0.71
2019-01-11T01:31:55.633Z,-0.74
2019-01-11T01:34:26.252Z,-0.73
2019-01-11T01:36:56.809Z,-0.76
2019-01-11T01:39:27.390Z,-0.80
2019-01-11T01:41:58.090Z,-0.78
2019-01-11T01:44:28.779Z,-0.76
2019-01-11T01:46:59.398Z,-0.77
2019-01-11T01:49:30.009Z,-0.82
2019-01-11T01:52:00.663Z,-0.76
2019-01-11T01:54:31.430Z,-0.81
2019-01-11T01:57:02.093Z,-0.82
2019-01-11T01:59:32.685Z,-0.85
2019-01-11T02:02:03.369Z,-0.83
2019-01-11T02:04:34.378Z,-0.88
2019-01-11T02:07:04.948Z,-0.88
2019-01-11T02:09:35.573Z,-0.87
2019-01-11T02:12:06.128Z,-0.89
2019-01-11T02:14:36.683Z,-0.87
2019-01-11T02:17:07.318Z,-0.84
2019-01-11T02:19:37.881Z,-0.91
2019-01-11T02:22:08.579Z,-0.89
2019-01-11T02:24:39.343Z,-0.88
2019-01-11T02:27:09.980Z,-0.88
2019-01-11T02:29:40.615Z,-0.86
2019-01-11T02:32:11.368Z,-0.80
2019-01-11T02:34:41.932Z,-0.87
2019-01-11T02:37:12.609Z,-0.93
2019-01-11T02:39:43.249Z,-0.98
2019-01-11T02:42:14.249Z,-0.95
2019-01-11T02:44:44.930Z,-0.92
2019-01-11T02:47:15.549Z,-1.00
2019-01-11T02:49:46.689Z,-1.01
2019-01-11T02:52:17.260Z,-1.05
2019-01-11T02:54:47.859Z,-1.05
2019-01-11T02:57:18.491Z,-1.08
2019-01-11T02:59:49.151Z,-1.06
2019-01-11T03:02:19.951Z,-1.08
2019-01-11T03:04:50.602Z,-1.08
2019-01-11T03:07:21.287Z,-1.08
2019-01-11T03:09:51.910Z,-1.06
2019-01-11T03:12:22.482Z,-1.04
2019-01-11T03:14:53.109Z,-1.08
2019-01-11T03:17:23.792Z,-1.09
2019-01-11T03:19:54.417Z,-1.10
2019-01-11T03:22:25.012Z,-1.13
2019-01-11T03:24:55.618Z,-1.12
2019-01-11T03:27:26.250Z,-1.14
2019-01-11T03:29:56.859Z,-1.13
2019-01-11T03:32:27.419Z,-1.16
2019-01-11T03:35:16.848Z,-1.16
2019-01-11T03:37:51.028Z,-1.19
2019-01-11T03:40:26.612Z,-1.17
2019-01-11T03:42:57.362Z,-1.20
2019-01-11T03:45:28.004Z,-1.22
2019-01-11T03:47:58.680Z,-1.25
2019-01-11T03:50:29.268Z,-1.28
2019-01-11T03:52:59.812Z,-1.28
2019-01-11T03:55:30.350Z,-1.29
2019-01-11T03:58:00.907Z,-1.31
2019-01-11T04:00:31.604Z,-1.33
2019-01-11T04:03:02.188Z,-1.33
2019-01-11T04:05:32.822Z,-1.34
2019-01-11T04:08:03.427Z,-1.35
2019-01-11T04:10:33.969Z,-1.36
2019-01-11T04:13:04.622Z,-1.42
2019-01-11T04:15:35.428Z,-1.40
2019-01-11T04:18:25.130Z,-1.45
2019-01-11T04:20:57.104Z,-1.44
2019-01-11T04:23:27.886Z,-1.41
2019-01-11T04:25:58.778Z,-1.45
2019-01-11T04:28:29.481Z,-1.43
2019-01-11T04:31:00.188Z,-1.46
2019-01-11T04:33:30.912Z,-1.42
2019-01-11T04:36:01.370Z,-1.50
2019-01-11T04:38:32.137Z,-1.53
2019-01-11T04:41:02.696Z,-1.51
2019-01-11T04:43:33.257Z,-1.52
2019-01-11T04:46:03.864Z,-1.51
2019-01-11T04:48:34.411Z,-1.54
2019-01-11T04:51:05.289Z,-1.55
2019-01-11T04:53:35.802Z,-1.55
2019-01-11T04:56:06.540Z,-1.57
2019-01-11T04:58:37.037Z,-1.55
2019-01-11T05:01:07.659Z,-1.55
2019-01-11T05:03:38.390Z,-1.58
2019-01-11T05:06:08.950Z,-1.57
2019-01-11T05:08:40.854Z,-1.65
2019-01-11T05:11:11.437Z,-1.66
2019-01-11T05:13:44.280Z,-1.65
2019-01-11T05:16:15.036Z,-1.61
2019-01-11T05:18:45.527Z,-1.72
2019-01-11T05:21:16.227Z,-1.72
2019-01-11T05:23:46.789Z,-1.76
2019-01-11T05:26:17.390Z,-1.81
2019-01-11T05:28:48.018Z,-1.88
2019-01-11T05:31:18.785Z,-1.92
2019-01-11T05:33:49.591Z,-1.95
2019-01-11T05:36:20.317Z,-2.09
2019-01-11T05:38:51.350Z,-2.19
2019-01-11T05:41:21.959Z,-2.31
2019-01-11T05:43:52.519Z,-2.30
2019-01-11T05:46:23.194Z,-2.41
2019-01-11T05:48:54.506Z,-2.51
2019-01-11T05:51:24.985Z,-2.95
2019-01-11T05:53:55.672Z,-3.05
2019-01-11T05:56:26.347Z,-3.06
2019-01-11T05:59:01.714Z,-3.14
2019-01-11T06:01:32.369Z,-3.23
2019-01-11T06:04:05.302Z,-3.37
2019-01-11T06:06:54.795Z,-3.41
2019-01-11T06:09:25.689Z,-3.40
2019-01-11T06:11:56.259Z,-3.41
2019-01-11T06:14:26.869Z,-3.46
2019-01-11T06:16:57.481Z,-3.49
2019-01-11T06:19:28.267Z,-3.56
2019-01-11T06:21:58.741Z,-3.67
2019-01-11T06:24:29.339Z,-3.77
2019-01-11T06:26:59.978Z,-3.83
2019-01-11T06:29:30.576Z,-4.00
2019-01-11T06:32:01.278Z,-4.08
2019-01-11T06:34:31.872Z,-4.08
2019-01-11T06:37:02.511Z,-4.09
2019-01-11T06:39:33.189Z,-4.08
2019-01-11T06:42:13.687Z,-4.17
2019-01-11T06:44:44.291Z,-4.18
2019-01-11T06:47:14.979Z,-4.23
2019-01-11T06:49:45.607Z,-4.18
2019-01-11T06:52:16.177Z,-4.20
2019-01-11T06:54:46.812Z,-4.26
2019-01-11T06:57:17.650Z,-4.34
2019-01-11T06:59:48.318Z,-4.36
2019-01-11T07:02:19.075Z,-4.40
2019-01-11T07:04:50.037Z,-4.46
2019-01-11T07:07:20.739Z,-4.51
2019-01-11T07:09:51.629Z,-4.50
2019-01-11T07:12:23.202Z,-4.46
2019-01-11T07:14:53.848Z,-4.39
2019-01-11T07:17:24.639Z,-4.35
2019-01-11T07:19:55.298Z,-4.27
2019-01-11T07:22:26.098Z,-3.95
2019-01-11T07:24:56.808Z,-3.21
2019-01-11T07:27:29.109Z,-2.60
2019-01-11T07:29:59.974Z,-2.06
2019-01-11T07:32:30.539Z,-1.80
2019-01-11T07:35:01.149Z,-1.80
2019-01-11T07:37:31.844Z,-1.64
2019-01-11T07:40:02.690Z,-1.66
2019-01-11T07:42:33.230Z,-1.83
2019-01-11T07:45:03.959Z,-1.99
2019-01-11T07:47:34.705Z,-2.06
2019-01-11T07:50:06.168Z,-2.18
2019-01-11T07:52:36.849Z,-2.24
2019-01-11T07:55:08.649Z,-2.13
2019-01-11T07:57:39.257Z,-2.18
2019-01-11T08:00:10.833Z,-2.09
2019-01-11T08:02:42.095Z,-1.86
2019-01-11T08:05:13.413Z,-1.55
2019-01-11T08:07:44.028Z,-1.16
2019-01-11T08:10:14.878Z,-0.72
2019-01-11T08:12:45.769Z,-0.09
2019-01-11T08:15:17.297Z,0.30
2019-01-11T08:17:47.923Z,0.58
2019-01-11T08:20:18.628Z,1.23
2019-01-11T08:22:49.188Z,1.69
2019-01-11T08:25:19.731Z,2.96
2019-01-11T08:27:50.493Z,3.75
2019-01-11T08:30:21.196Z,4.47
2019-01-11T08:32:51.780Z,4.99
2019-01-11T08:35:22.738Z,5.14
2019-01-11T08:37:53.313Z,5.72
2019-01-11T08:40:23.877Z,5.91
2019-01-11T08:42:54.448Z,6.50
2019-01-11T08:45:25.328Z,6.48
2019-01-11T08:47:55.960Z,5.77
2019-01-11T08:50:26.572Z,6.59
2019-01-11T08:52:57.623Z,6.93
2019-01-11T08:55:29.297Z,6.49
2019-01-11T08:57:59.936Z,6.08
2019-01-11T09:00:30.533Z,6.14
2019-01-11T09:03:01.165Z,5.81
2019-01-11T09:05:31.697Z,5.33
2019-01-11T09:08:02.251Z,5.57
2019-01-11T09:10:32.981Z,6.25
2019-01-11T09:13:03.433Z,6.93
2019-01-11T09:15:34.342Z,7.25
2019-01-11T09:18:15.719Z,8.21
2019-01-11T09:20:46.434Z,8.71
2019-01-11T09:23:17.209Z,8.20
2019-01-11T09:25:47.881Z,8.15
2019-01-11T09:28:18.413Z,8.00
2019-01-11T09:30:49.067Z,7.72
2019-01-11T09:33:20.721Z,6.86
2019-01-11T09:35:51.443Z,7.00
2019-01-11T09:38:22.259Z,7.64
2019-01-11T09:40:52.795Z,7.12
2019-01-11T09:43:23.318Z,7.92
2019-01-11T09:45:53.929Z,8.47
2019-01-11T09:48:24.470Z,8.71
2019-01-11T09:50:55.002Z,8.60
2019-01-11T09:53:25.727Z,7.64
2019-01-11T09:55:56.282Z,6.05
2019-01-11T09:58:26.977Z,6.22
2019-01-11T10:00:59.246Z,5.84
2019-01-11T10:03:29.964Z,5.16
2019-01-11T10:06:00.782Z,4.73
2019-01-11T10:08:31.414Z,4.50
2019-01-11T10:11:02.144Z,3.92
2019-01-11T10:13:32.808Z,2.91
2019-01-11T10:16:03.384Z,2.72
2019-01-11T10:18:33.930Z,2.77
2019-01-11T10:21:04.937Z,2.89
2019-01-11T10:23:35.497Z,2.70
2019-01-11T10:26:07.483Z,3.13
2019-01-11T10:28:38.141Z,3.87
2019-01-11T10:31:08.652Z,4.89
2019-01-11T10:33:39.245Z,4.96
2019-01-11T10:36:09.918Z,4.53
2019-01-11T10:38:40.519Z,4.51
2019-01-11T10:41:11.257Z,3.59
2019-01-11T10:43:41.796Z,3.09
2019-01-11T10:46:32.282Z,2.90
2019-01-11T10:49:02.881Z,2.75
2019-01-11T10:51:33.451Z,2.66
2019-01-11T10:54:04.202Z,2.13
2019-01-11T10:56:35.198Z,1.89
2019-01-11T10:59:06.073Z,1.63
2019-01-11T11:01:36.589Z,1.65
2019-01-11T11:04:07.268Z,1.72
2019-01-11T11:06:37.910Z,1.71
2019-01-11T11:09:09.684Z,1.33
2019-01-11T11:11:40.378Z,1.45
2019-01-11T11:14:11.069Z,1.42
2019-01-11T11:16:41.903Z,1.32
2019-01-11T11:19:12.515Z,1.25
2019-01-11T11:21:43.126Z,1.36
2019-01-11T11:24:13.722Z,1.55
2019-01-11T11:26:44.331Z,1.79
2019-01-11T11:29:14.900Z,2.17
2019-01-11T11:31:45.637Z,2.60
2019-01-11T11:34:16.672Z,2.80
2019-01-11T11:36:47.126Z,2.39
2019-01-11T11:39:17.941Z,2.01
2019-01-11T11:41:48.569Z,1.65
2019-01-11T11:44:19.268Z,1.42
2019-01-11T11:46:49.870Z,1.08
2019-01-11T11:49:20.547Z,0.70
2019-01-11T11:51:51.108Z,0.67
2019-01-11T11:54:21.677Z,0.56
2019-01-11T11:56:52.268Z,0.47
2019-01-11T11:59:22.796Z,0.36
2019-01-11T12:01:53.310Z,0.31
2019-01-11T12:04:23.898Z,0.20
2019-01-11T12:06:54.590Z,0.03
2019-01-11T12:09:25.553Z,0.02
2019-01-11T12:11:56.073Z,-0.05
2019-01-11T12:14:26.638Z,-0.13
2019-01-11T12:16:57.332Z,-0.18
2019-01-11T12:19:27.899Z,0.18
2019-01-11T12:22:01.751Z,0.45
2019-01-11T12:24:30.812Z,0.51
2019-01-11T12:27:01.519Z,0.38
2019-01-11T12:29:32.177Z,0.23
2019-01-11T12:32:02.631Z,0.16
2019-01-11T12:34:33.172Z,0.18
2019-01-11T12:37:03.756Z,0.08
2019-01-11T12:39:34.377Z,0.24
2019-01-11T12:42:05.059Z,0.20
2019-01-11T12:44:36.426Z,0.20
2019-01-11T12:47:07.188Z,-0.03
2019-01-11T12:49:37.798Z,-0.13
2019-01-11T12:52:08.427Z,-0.15
2019-01-11T12:54:39.096Z,-0.15
2019-01-11T12:57:09.628Z,-0.26
2019-01-11T12:59:40.692Z,-0.33
2019-01-11T13:02:11.279Z,-0.35
2019-01-11T13:04:42.148Z,-0.26
2019-01-11T13:07:12.953Z,-0.27
2019-01-11T13:09:43.427Z,-0.37
2019-01-11T13:12:14.107Z,-0.21
2019-01-11T13:14:44.839Z,-0.38
2019-01-11T13:17:15.960Z,-0.32
2019-01-11T13:19:48.232Z,-0.10
2019-01-11T13:22:19.008Z,-0.18
2019-01-11T13:24:49.965Z,-0.37
2019-01-11T13:27:20.511Z,-0.41
2019-01-11T13:29:51.097Z,-0.38
2019-01-11T13:32:21.774Z,-0.41
2019-01-11T13:34:52.380Z,-0.42
2019-01-11T13:37:22.912Z,-0.35
2019-01-11T13:39:53.732Z,-0.43
2019-01-11T13:42:24.278Z,-0.44
2019-01-11T13:44:54.904Z,-0.41
2019-01-11T13:47:25.739Z,-0.56
2019-01-11T13:49:56.260Z,-0.46
2019-01-11T13:52:26.808Z,-0.50
2019-01-11T13:54:57.323Z,-0.49
2019-01-11T13:57:27.959Z,-0.57
2019-01-11T13:59:58.575Z,-0.85
2019-01-11T14:02:29.499Z,-0.82
2019-01-11T14:05:00.223Z,-1.02
2019-01-11T14:07:31.789Z,-1.19
2019-01-11T14:10:02.250Z,-1.21
2019-01-11T14:12:32.808Z,-1.10
2019-01-11T14:15:03.618Z,-1.13
2019-01-11T14:17:34.679Z,-1.24
2019-01-11T14:20:06.229Z,-1.21
2019-01-11T14:22:36.966Z,-1.29
2019-01-11T14:25:08.238Z,-1.34
2019-01-11T14:27:38.938Z,-1.25
2019-01-11T14:30:10.759Z,-1.36
2019-01-11T14:32:41.420Z,-1.31
2019-01-11T14:35:12.475Z,-1.35
2019-01-11T14:37:43.130Z,-1.43
2019-01-11T14:40:15.831Z,-1.39
2019-01-11T14:42:46.889Z,-1.48
2019-01-11T14:45:18.669Z,-1.45
2019-01-11T14:47:49.908Z,-1.48
2019-01-11T14:50:21.562Z,-1.43
2019-01-11T14:52:52.518Z,-1.41
2019-01-11T14:55:23.130Z,-1.39
2019-01-11T14:57:53.811Z,-1.42
2019-01-11T15:00:25.399Z,-1.40
2019-01-11T15:02:56.069Z,-1.43
2019-01-11T15:05:26.787Z,-1.54
2019-01-11T15:07:57.500Z,-1.49
2019-01-11T15:10:28.349Z,-1.46
2019-01-11T15:12:59.128Z,-1.43
2019-01-11T15:15:29.778Z,-1.44
2019-01-11T15:18:00.618Z,-1.45
2019-01-11T15:20:31.248Z,-1.42
2019-01-11T15:23:02.972Z,-1.43
2019-01-11T15:25:33.982Z,-1.43
2019-01-11T15:28:04.576Z,-1.48
2019-01-11T15:30:35.231Z,-1.47
2019-01-11T15:33:05.931Z,-1.47
2019-01-11T15:35:36.638Z,-1.51
2019-01-11T15:38:08.258Z,-1.56
2019-01-11T15:40:39.009Z,-1.58
2019-01-11T15:43:09.619Z,-1.63
2019-01-11T15:45:40.270Z,-1.56
2019-01-11T15:48:17.907Z,-1.58
2019-01-11T15:50:58.064Z,-1.59
2019-01-11T15:53:37.995Z,-1.57
2019-01-11T15:56:12.379Z,-1.58
2019-01-11T15:58:43.208Z,-1.63
2019-01-11T16:01:13.868Z,-1.62
2019-01-11T16:03:45.407Z,-1.60
2019-01-11T16:06:29.884Z,-1.62
2019-01-11T16:10:00.640Z,-1.60
2019-01-11T16:13:17.290Z,-1.58
2019-01-11T16:16:22.107Z,-1.58
2019-01-11T16:18:55.308Z,-1.63
2019-01-11T16:21:25.937Z,-1.57
2019-01-11T16:23:56.648Z,-1.57
2019-01-11T16:26:27.271Z,-1.52
2019-01-11T16:28:58.233Z,-1.51
2019-01-11T16:31:28.800Z,-1.49
2019-01-11T16:33:59.639Z,-1.49
2019-01-11T16:36:30.238Z,-1.50
2019-01-11T16:39:01.069Z,-1.49
2019-01-11T16:41:31.672Z,-1.47
2019-01-11T16:44:02.393Z,-1.47
2019-01-11T16:46:33.012Z,-1.46
2019-01-11T16:49:03.801Z,-1.45
2019-01-11T16:51:34.402Z,-1.42
2019-01-11T16:54:05.049Z,-1.41
2019-01-11T16:56:35.673Z,-1.38
2019-01-11T16:59:07.475Z,-1.37
2019-01-11T17:01:38.229Z,-1.35
2019-01-11T17:04:09.338Z,-1.34
2019-01-11T17:06:40.268Z,-1.32
2019-01-11T17:09:11.581Z,-1.33
2019-01-11T17:11:42.290Z,-1.32
2019-01-11T17:14:13.102Z,-1.29
2019-01-11T17:16:43.858Z,-1.28
2019-01-11T17:19:14.488Z,-1.29
2019-01-11T17:21:45.368Z,-1.28
2019-01-11T17:24:16.973Z,-1.23
2019-01-11T17:26:47.951Z,-1.21
2019-01-11T17:29:18.629Z,-1.17
2019-01-11T17:31:49.431Z,-1.16
2019-01-11T17:34:20.240Z,-1.16
2019-01-11T17:36:50.980Z,-1.14
2019-01-11T17:39:21.723Z,-1.15
2019-01-11T17:41:52.544Z,-1.11
2019-01-11T17:44:23.213Z,-1.10
2019-01-11T17:46:54.889Z,-1.12
2019-01-11T17:49:25.464Z,-1.07
2019-01-11T17:51:56.292Z,-1.07
2019-01-11T17:54:26.868Z,-1.03
2019-01-11T17:56:57.692Z,-1.03
2019-01-11T17:59:28.302Z,-1.00
2019-01-11T18:01:58.854Z,-0.97
2019-01-11T18:04:29.371Z,-0.96
2019-01-11T18:07:00.108Z,-0.95
2019-01-11T18:09:30.798Z,-0.94
2019-01-11T18:12:01.700Z,-0.92
2019-01-11T18:14:32.535Z,-0.90
2019-01-11T18:17:04.637Z,-0.89
2019-01-11T18:19:39.647Z,-0.89
2019-01-11T18:22:16.018Z,-0.87
2019-01-11T18:24:47.035Z,-0.86
2019-01-11T18:27:17.812Z,-0.83
2019-01-11T18:29:50.779Z,-0.83
2019-01-11T18:32:21.569Z,-0.79
2019-01-11T18:34:55.511Z,-0.75
2019-01-11T18:37:28.118Z,-0.73
2019-01-11T18:39:58.541Z,-0.72
2019-01-11T18:42:30.438Z,-0.71
2019-01-11T18:45:01.103Z,-0.69
2019-01-11T18:47:34.193Z,-0.65
2019-01-11T18:50:08.498Z,-0.61
2019-01-11T18:52:39.258Z,-0.58
2019-01-11T18:55:11.529Z,-0.59
2019-01-11T18:57:42.362Z,-0.58
2019-01-11T19:00:22.593Z,-0.57
2019-01-11T19:02:53.422Z,-0.52
2019-01-11T19:05:25.423Z,-0.49
2019-01-11T19:07:56.335Z,-0.46
2019-01-11T19:10:27.052Z,-0.39
2019-01-11T19:13:00.988Z,-0.35
2019-01-11T19:15:32.586Z,-0.34
2019-01-11T19:18:06.569Z,-0.29
2019-01-11T19:20:45.479Z,-0.24
2019-01-11T19:23:20.619Z,-0.18
2019-01-11T19:25:51.610Z,-0.11
2019-01-11T19:28:22.374Z,-0.03
2019-01-11T19:30:53.075Z,0.02
2019-01-11T19:33:24.645Z,0.09
2019-01-11T19:35:56.416Z,0.14
2019-01-11T19:38:27.802Z,0.20
2019-01-11T19:41:06.492Z,0.24
2019-01-11T19:43:40.217Z,0.28
2019-01-11T19:46:15.337Z,0.30
2019-01-11T19:48:48.844Z,0.31
2019-01-11T19:51:29.330Z,0.34
2019-01-11T19:54:01.163Z,0.37
2019-01-11T19:56:44.856Z,0.41
2019-01-11T19:59:15.939Z,0.44
2019-01-11T20:01:46.663Z,0.46
2019-01-11T20:04:18.548Z,0.48
2019-01-11T20:06:55.564Z,0.51
2019-01-11T20:09:29.382Z,0.52
2019-01-11T20:12:00.979Z,0.53
2019-01-11T20:14:38.831Z,0.55
2019-01-11T20:17:14.185Z,0.55
2019-01-11T20:19:46.638Z,0.60
2019-01-11T20:22:24.401Z,0.62
2019-01-11T20:24:57.854Z,0.61
2019-01-11T20:27:33.146Z,0.64
2019-01-11T20:30:04.059Z,0.68
2019-01-11T20:32:35.879Z,0.68
2019-01-11T20:35:09.452Z,0.70
2019-01-11T20:37:44.423Z,0.72
2019-01-11T20:40:21.710Z,0.74
2019-01-11T20:42:55.393Z,0.76
2019-01-11T20:45:32.008Z,0.76
2019-01-11T20:48:06.211Z,0.76
2019-01-11T20:50:42.635Z,0.79
2019-01-11T20:53:13.871Z,0.83
2019-01-11T20:55:48.472Z,0.85
2019-01-11T20:58:27.582Z,0.87
2019-01-11T21:01:10.610Z,0.89
2019-01-11T21:03:44.373Z,0.91
2019-01-11T21:06:20.305Z,0.88
2019-01-11T21:08:55.802Z,0.90
2019-01-11T21:11:31.872Z,0.91
2019-01-11T21:14:09.043Z,0.93
2019-01-11T21:16:44.596Z,0.93
2019-01-11T21:19:23.246Z,0.93
2019-01-11T21:21:55.205Z,0.94
2019-01-11T21:24:26.271Z,0.94
2019-01-11T21:26:57.123Z,0.94
2019-01-11T21:29:32.091Z,0.93
2019-01-11T21:32:02.883Z,0.92
2019-01-11T21:34:35.039Z,0.93
2019-01-11T21:37:07.272Z,0.96
2019-01-11T21:39:38.610Z,0.96
2019-01-11T21:42:09.307Z,0.99
2019-01-11T21:44:40.479Z,0.97
2019-01-11T21:47:13.008Z,0.99
2019-01-11T21:49:44.888Z,0.96
2019-01-11T21:52:17.405Z,0.98
2019-01-11T21:54:48.233Z,1.00
2019-01-11T21:57:18.871Z,1.01
2019-01-11T21:59:49.783Z,1.01
2019-01-11T22:02:20.527Z,1.03
2019-01-11T22:04:51.223Z,1.04
2019-01-11T22:07:21.879Z,1.04
2019-01-11T22:09:52.751Z,1.01
2019-01-11T22:12:23.318Z,1.04
2019-01-11T22:14:54.171Z,1.08
2019-01-11T22:17:24.899Z,1.10
2019-01-11T22:19:55.919Z,1.11
2019-01-11T22:22:26.603Z,1.13
2019-01-11T22:24:57.174Z,1.12
2019-01-11T22:27:27.892Z,1.12
2019-01-11T22:29:58.369Z,1.13
2019-01-11T22:32:28.889Z,1.15
2019-01-11T22:34:59.528Z,1.18
2019-01-11T22:37:30.174Z,1.19
2019-01-11T22:40:00.799Z,1.15
2019-01-11T22:42:31.468Z,1.19
2019-01-11T22:45:02.078Z,1.23
2019-01-11T22:47:32.778Z,1.22
2019-01-11T22:50:03.473Z,1.26
2019-01-11T22:52:34.099Z,1.27
2019-01-11T22:55:05.850Z,1.28
2019-01-11T22:57:36.469Z,1.30
2019-01-11T23:00:36.963Z,1.30
2019-01-11T23:03:16.138Z,1.29
2019-01-11T23:05:47.375Z,1.31
2019-01-11T23:08:21.732Z,1.30
2019-01-11T23:11:26.391Z,1.31
2019-01-11T23:13:57.012Z,1.33
2019-01-11T23:16:44.959Z,1.36
2019-01-11T23:19:15.621Z,1.39
2019-01-11T23:21:46.272Z,1.39
2019-01-11T23:24:17.515Z,1.41
2019-01-11T23:26:48.487Z,1.44
2019-01-11T23:29:19.021Z,1.45
2019-01-11T23:31:49.519Z,1.41
2019-01-11T23:34:20.231Z,1.45
2019-01-11T23:36:50.803Z,1.48
2019-01-11T23:39:21.819Z,1.49
2019-01-11T23:41:52.359Z,1.50
2019-01-11T23:44:23.038Z,1.49
2019-01-11T23:46:53.653Z,1.50
2019-01-11T23:49:24.208Z,1.47
2019-01-11T23:51:54.853Z,1.51
2019-01-11T23:54:25.470Z,1.48
2019-01-11T23:56:56.078Z,1.54
2019-01-11T23:59:26.727Z,1.52
